Time;durP1;ratioP1;P1;durP2;ratioP2;P2;SDS_P1;SDS_P2;PMS_P1;PMS_P2;Temp;Humidity;BMP_temperature;BMP_pressure;BME280_temperature;BME280_humidity;BME280_pressure;Samples;Min_cycle;Max_cycle;Signal;HPM_P1;HPM_P2
2023/07/01 00:00:51;;;;;;;6.97;2.63;;;;;;;20.76;41.43;100680.00;5073148;28;20082;-76
2023/07/01 00:03:18;;;;;;;8.32;2.85;;;;;;;20.76;41.07;100679.19;5066384;28;20028;-76
2023/07/01 00:05:43;;;;;;;6.82;2.65;;;;;;;20.66;41.53;100674.63;5068979;28;20040;-76
2023/07/01 00:08:09;;;;;;;6.40;2.20;;;;;;;20.67;41.43;100665.06;5071185;28;20510;-76
2023/07/01 00:10:34;;;;;;;6.32;2.20;;;;;;;20.67;41.57;100670.69;5052537;28;20119;-76
2023/07/01 00:12:59;;;;;;;6.60;2.33;;;;;;;20.71;41.44;100663.25;5061145;28;20535;-76
2023/07/01 00:15:25;;;;;;;3.85;2.25;;;;;;;20.64;42.07;100657.22;5067996;28;20044;-76
2023/07/01 00:17:50;;;;;;;5.30;2.83;;;;;;;20.65;41.93;100652.41;5071097;28;20024;-76
2023/07/01 00:20:16;;;;;;;3.70;2.03;;;;;;;20.65;42.04;100650.44;5054948;28;20112;-75
2023/07/01 00:22:41;;;;;;;6.57;2.60;;;;;;;20.62;42.04;100648.25;5068761;28;20052;-76
2023/07/01 00:25:07;;;;;;;6.72;2.42;;;;;;;20.64;42.24;100645.94;5067669;28;20043;-76
2023/07/01 00:27:32;;;;;;;5.95;2.17;;;;;;;20.65;42.15;100647.59;5049970;28;20025;-76
2023/07/01 00:29:57;;;;;;;4.95;2.65;;;;;;;20.61;42.57;100635.31;5070966;28;20558;-75
2023/07/01 00:32:22;;;;;;;5.50;2.13;;;;;;;20.63;42.64;100637.78;5054058;28;20029;-75
2023/07/01 00:34:48;;;;;;;6.03;2.20;;;;;;;20.57;42.75;100626.69;5069333;28;20040;-76
2023/07/01 00:37:13;;;;;;;6.35;2.35;;;;;;;20.52;43.12;100626.00;5056907;28;20096;-76
2023/07/01 00:39:38;;;;;;;4.68;2.50;;;;;;;20.48;43.26;100628.59;5058786;28;20056;-75
2023/07/01 00:42:04;;;;;;;5.60;2.40;;;;;;;20.45;43.36;100619.97;5049587;28;20413;-75
2023/07/01 00:44:30;;;;;;;5.18;2.28;;;;;;;20.47;43.30;100620.47;5062206;28;20055;-76
2023/07/01 00:46:55;;;;;;;5.90;2.03;;;;;;;20.46;43.50;100611.16;5066601;28;20111;-75
2023/07/01 00:49:22;;;;;;;2.72;2.03;;;;;;;20.42;43.72;100614.97;5066457;28;20031;-75
2023/07/01 00:51:47;;;;;;;6.63;2.53;;;;;;;20.42;43.72;100610.16;5064097;28;20056;-75
2023/07/01 00:54:12;;;;;;;4.72;2.50;;;;;;;20.43;43.75;100613.81;5055878;28;20057;-76
2023/07/01 00:56:38;;;;;;;3.67;2.10;;;;;;;20.31;44.36;100603.16;5052533;28;20028;-76
2023/07/01 00:59:03;;;;;;;3.08;1.85;;;;;;;20.42;44.28;100609.34;5068250;28;20025;-75
2023/07/01 01:01:34;;;;;;;3.78;2.03;;;;;;;20.43;44.72;100608.16;5068862;28;20021;-76
2023/07/01 01:04:14;;;;;;;7.70;2.30;;;;;;;20.42;45.32;100593.25;5063142;28;20388;-76
2023/07/01 01:06:49;;;;;;;6.70;2.35;;;;;;;20.45;45.11;100598.25;5050327;28;20562;-76
2023/07/01 01:09:42;;;;;;;4.03;1.90;;;;;;;20.45;45.40;100594.59;5068189;28;20078;-75
2023/07/01 01:12:11;;;;;;;5.93;2.30;;;;;;;20.45;45.34;100586.97;5059721;28;20438;-76
2023/07/01 01:14:39;;;;;;;4.50;2.10;;;;;;;20.41;45.56;100588.78;5067605;28;20048;-76
2023/07/01 01:17:10;;;;;;;7.75;2.33;;;;;;;20.44;45.37;100584.47;5067272;28;20060;-75
2023/07/01 01:19:44;;;;;;;4.35;2.30;;;;;;;20.49;45.48;100570.25;5059888;28;20029;-76
2023/07/01 01:22:15;;;;;;;3.88;2.13;;;;;;;20.47;45.39;100572.53;5049929;28;20025;-76
2023/07/01 01:24:47;;;;;;;6.55;2.85;;;;;;;20.43;45.48;100572.34;5063772;28;20476;-75
2023/07/01 01:27:15;;;;;;;6.10;2.47;;;;;;;20.50;45.64;100563.47;5059911;28;20020;-76
2023/07/01 01:29:41;;;;;;;5.80;2.33;;;;;;;20.51;45.64;100570.75;5069537;28;20309;-75
2023/07/01 01:32:07;;;;;;;5.78;2.13;;;;;;;20.51;45.92;100568.75;5073712;28;20024;-76
2023/07/01 01:34:33;;;;;;;4.88;2.10;;;;;;;20.48;46.60;100569.41;5072934;28;20032;-76
2023/07/01 01:37:03;;;;;;;4.47;2.42;;;;;;;20.49;46.56;100567.44;5061028;28;20056;-75
2023/07/01 01:39:33;;;;;;;4.60;2.30;;;;;;;20.45;47.28;100563.59;5073770;28;20077;-76
2023/07/01 01:42:23;;;;;;;6.68;2.63;;;;;;;20.57;46.88;100566.63;5070479;28;20475;-75
2023/07/01 01:44:53;;;;;;;4.00;2.28;;;;;;;20.50;48.17;100561.47;5056864;28;20028;-76
2023/07/01 01:47:22;;;;;;;5.78;2.28;;;;;;;20.45;48.65;100557.94;5059424;28;20388;-76
2023/07/01 01:49:54;;;;;;;10.77;2.35;;;;;;;20.47;48.59;100549.97;5053766;28;20484;-75
2023/07/01 01:52:21;;;;;;;11.63;2.67;;;;;;;20.34;49.08;100552.59;5060675;28;20107;-75
2023/07/01 01:54:48;;;;;;;5.40;2.38;;;;;;;20.37;49.12;100548.31;5058675;28;20047;-75
2023/07/01 01:57:15;;;;;;;6.70;2.70;;;;;;;20.37;49.10;100550.28;5057070;28;20044;-75
2023/07/01 01:59:44;;;;;;;4.53;2.10;;;;;;;20.40;49.08;100544.00;5082481;28;20509;-76
2023/07/01 02:02:10;;;;;;;5.50;2.40;;;;;;;20.35;49.21;100536.50;5073479;28;20040;-75
2023/07/01 02:04:36;;;;;;;6.93;2.70;;;;;;;20.39;49.32;100537.50;5072373;28;20020;-75
2023/07/01 02:07:01;;;;;;;6.05;2.08;;;;;;;20.39;49.36;100542.31;5055984;28;20037;-75
2023/07/01 02:09:28;;;;;;;5.05;2.60;;;;;;;20.38;49.56;100535.84;5056649;28;20397;-75
2023/07/01 02:11:54;;;;;;;3.83;2.30;;;;;;;20.38;49.52;100541.50;5083348;28;20384;-75
2023/07/01 02:14:20;;;;;;;9.35;2.63;;;;;;;20.34;49.74;100527.22;5055928;28;20047;-75
2023/07/01 02:16:45;;;;;;;8.10;2.78;;;;;;;20.33;49.99;100536.84;5056764;28;20045;-75
2023/07/01 02:19:10;;;;;;;5.85;2.20;;;;;;;20.38;49.76;100530.22;5066890;28;20032;-76
2023/07/01 02:21:36;;;;;;;5.80;2.65;;;;;;;20.32;50.19;100529.56;5071657;28;20012;-76
2023/07/01 02:24:01;;;;;;;5.50;2.92;;;;;;;20.30;50.83;100529.03;5066810;28;20104;-76
2023/07/01 02:26:26;;;;;;;4.72;2.40;;;;;;;20.26;51.43;100518.75;5067681;28;20104;-76
2023/07/01 02:28:52;;;;;;;7.05;2.88;;;;;;;20.23;51.61;100510.94;5053301;28;20499;-75
2023/07/01 02:31:18;;;;;;;8.82;2.75;;;;;;;20.19;51.86;100510.75;5063333;28;20036;-75
2023/07/01 02:33:44;;;;;;;5.00;2.83;;;;;;;20.19;51.99;100502.31;5062048;28;20032;-75
2023/07/01 02:36:10;;;;;;;3.75;2.63;;;;;;;20.10;52.52;100509.91;5064432;28;20040;-75
2023/07/01 02:38:35;;;;;;;6.13;2.50;;;;;;;20.12;52.26;100504.75;5074927;28;20046;-75
2023/07/01 02:41:01;;;;;;;5.68;2.45;;;;;;;20.09;53.39;100503.44;5082241;28;20067;-75
2023/07/01 02:43:26;;;;;;;8.73;2.45;;;;;;;20.07;54.78;100494.47;5064928;28;20029;-74
2023/07/01 02:45:52;;;;;;;5.93;2.67;;;;;;;20.04;55.32;100489.50;5066035;28;20081;-75
2023/07/01 02:48:17;;;;;;;6.15;2.05;;;;;;;19.98;56.16;100492.78;5070678;28;20029;-76
2023/07/01 02:50:42;;;;;;;4.28;2.10;;;;;;;19.92;56.69;100494.91;5071715;28;20051;-75
2023/07/01 02:53:08;;;;;;;5.00;2.05;;;;;;;19.90;57.10;100493.59;5074113;28;20024;-75
2023/07/01 02:55:34;;;;;;;3.88;1.80;;;;;;;19.92;57.40;100506.16;5061699;28;20033;-75
2023/07/01 02:58:00;;;;;;;4.57;2.20;;;;;;;19.85;58.15;100498.22;5052274;28;20040;-76
2023/07/01 03:00:25;;;;;;;2.83;2.00;;;;;;;19.91;57.83;100493.25;5054359;28;20024;-75
2023/07/01 03:02:51;;;;;;;5.05;2.40;;;;;;;19.78;58.71;100489.38;5052310;28;20033;-76
2023/07/01 03:05:19;;;;;;;3.25;2.00;;;;;;;19.73;58.97;100495.16;5060023;28;20111;-75
2023/07/01 03:07:44;;;;;;;4.82;2.08;;;;;;;19.71;58.99;100486.19;5071763;28;20032;-75
2023/07/01 03:10:10;;;;;;;4.03;2.05;;;;;;;19.68;59.41;100484.03;5057558;28;20040;-75
2023/07/01 03:12:35;;;;;;;3.75;2.05;;;;;;;19.56;60.24;100490.22;5051693;28;20025;-75
2023/07/01 03:15:00;;;;;;;3.58;2.25;;;;;;;19.59;59.88;100483.13;5050766;28;20098;-75
2023/07/01 03:17:25;;;;;;;3.10;1.90;;;;;;;19.55;60.39;100473.66;5068939;28;20032;-75
2023/07/01 03:19:51;;;;;;;2.72;2.10;;;;;;;19.58;60.51;100473.03;5056845;28;20567;-75
2023/07/01 03:22:16;;;;;;;6.00;2.17;;;;;;;19.44;61.18;100467.47;5059828;28;20483;-75
2023/07/01 03:24:42;;;;;;;5.47;2.40;;;;;;;19.49;61.15;100464.53;5051133;28;20480;-75
2023/07/01 03:27:07;;;;;;;3.65;2.30;;;;;;;19.46;61.31;100458.72;5051836;28;20053;-76
2023/07/01 03:29:33;;;;;;;4.50;2.30;;;;;;;19.40;61.32;100462.81;5059939;28;20384;-76
2023/07/01 03:31:59;;;;;;;5.13;2.20;;;;;;;19.36;61.72;100459.81;5051959;28;20393;-75
2023/07/01 03:34:25;;;;;;;6.22;2.40;;;;;;;19.38;61.61;100455.53;5059695;28;20021;-75
2023/07/01 03:36:51;;;;;;;4.93;2.47;;;;;;;19.35;61.53;100453.34;5064377;28;20089;-75
2023/07/01 03:39:16;;;;;;;5.45;2.40;;;;;;;19.35;61.72;100450.53;5055479;28;20058;-75
2023/07/01 03:41:42;;;;;;;3.80;2.40;;;;;;;19.43;61.68;100453.72;5052153;28;20385;-75
2023/07/01 03:44:07;;;;;;;3.97;2.30;;;;;;;19.31;62.61;100443.91;5052551;28;20389;-75
2023/07/01 03:46:32;;;;;;;4.18;2.15;;;;;;;19.29;63.00;100446.19;5052324;28;20040;-75
2023/07/01 03:48:58;;;;;;;3.30;2.15;;;;;;;19.27;63.25;100448.50;5069537;28;20044;-75
2023/07/01 03:51:23;;;;;;;3.83;2.42;;;;;;;19.20;64.45;100441.66;5052916;28;20435;-75
2023/07/01 03:53:49;;;;;;;3.17;2.30;;;;;;;19.11;64.66;100448.06;5060989;28;20361;-75
2023/07/01 03:56:14;;;;;;;4.05;2.20;;;;;;;19.10;65.08;100440.78;5068050;28;20028;-75
2023/07/01 03:58:40;;;;;;;3.60;2.30;;;;;;;19.06;65.39;100438.91;5070398;28;20028;-75
2023/07/01 04:01:05;;;;;;;3.33;2.75;;;;;;;19.09;65.69;100432.66;5060955;28;20103;-75
2023/07/01 04:03:33;;;;;;;3.60;2.63;;;;;;;19.09;65.72;100430.66;5073280;28;20075;-76
2023/07/01 04:05:58;;;;;;;4.50;2.70;;;;;;;19.14;65.62;100432.53;5082215;28;20481;-75
2023/07/01 04:08:24;;;;;;;2.40;2.20;;;;;;;19.10;66.19;100431.53;5050335;28;20052;-75
2023/07/01 04:10:49;;;;;;;3.90;2.50;;;;;;;19.05;66.65;100424.00;5053756;28;20059;-75
2023/07/01 04:13:15;;;;;;;3.45;2.55;;;;;;;19.08;66.83;100420.56;5050164;28;20068;-75
2023/07/01 04:15:40;;;;;;;3.42;2.42;;;;;;;19.12;66.93;100415.13;5053455;28;20045;-75
2023/07/01 04:18:06;;;;;;;4.22;2.35;;;;;;;19.09;67.11;100410.16;5056818;28;20204;-76
2023/07/01 04:20:31;;;;;;;3.92;2.60;;;;;;;18.89;67.77;100412.31;5091246;28;20093;-74
2023/07/01 04:22:57;;;;;;;3.80;2.40;;;;;;;19.00;67.28;100410.09;5057979;28;20032;-75
2023/07/01 04:25:22;;;;;;;3.35;2.30;;;;;;;18.95;67.70;100404.59;5062106;28;20127;-75
2023/07/01 04:27:47;;;;;;;4.45;2.30;;;;;;;18.98;67.29;100400.31;5051052;28;20167;-75
2023/07/01 04:30:13;;;;;;;3.25;2.30;;;;;;;18.96;67.70;100406.25;5050638;28;20029;-75
2023/07/01 04:32:39;;;;;;;2.25;2.05;;;;;;;18.82;68.32;100395.09;5052368;28;20028;-75
2023/07/01 04:35:05;;;;;;;3.13;2.50;;;;;;;18.81;68.58;100398.22;5061702;28;20032;-75
2023/07/01 04:37:31;;;;;;;3.58;2.10;;;;;;;18.76;68.90;100401.97;5069042;28;20055;-75
2023/07/01 04:39:56;;;;;;;2.10;1.90;;;;;;;18.83;68.63;100402.38;5065416;28;20033;-75
2023/07/01 04:42:21;;;;;;;3.03;2.25;;;;;;;18.80;68.52;100397.38;5056477;28;20025;-75
2023/07/01 04:44:53;;;;;;;2.20;2.00;;;;;;;18.84;69.03;100394.75;5054667;28;20060;-74
2023/07/01 04:47:22;;;;;;;;;;;;;;;19.03;65.42;100388.94;5065225;28;20074;-76
2023/07/01 04:49:47;;;;;;;2.67;1.85;;;;;;;18.91;69.15;100386.72;5065932;28;20337;-75
2023/07/01 04:52:15;;;;;;;2.15;2.00;;;;;;;18.96;68.87;100397.00;5074526;28;20446;-75
2023/07/01 04:54:40;;;;;;;2.05;1.85;;;;;;;18.82;69.12;100381.03;5058750;28;20037;-75
2023/07/01 04:57:05;;;;;;;2.00;1.80;;;;;;;18.82;68.79;100383.84;5052829;28;20025;-69
2023/07/01 04:59:31;;;;;;;2.22;2.00;;;;;;;18.81;69.42;100393.41;5050166;28;20029;-75
2023/07/01 05:01:56;;;;;;;2.47;1.80;;;;;;;18.83;69.30;100379.06;5052751;28;20420;-72
2023/07/01 05:04:30;;;;;;;2.00;1.70;;;;;;;18.87;69.01;100372.47;5075661;28;20375;-76
2023/07/01 05:06:56;;;;;;;3.22;2.03;;;;;;;18.79;69.43;100378.84;5093780;28;20400;-68
2023/07/01 05:09:21;;;;;;;2.13;1.73;;;;;;;18.80;69.22;100371.25;5072152;28;20021;-75
2023/07/01 05:11:46;;;;;;;2.60;2.08;;;;;;;18.74;69.65;100372.53;5055327;28;20069;-74
2023/07/01 05:14:11;;;;;;;3.28;1.98;;;;;;;18.76;69.53;100371.06;5059739;28;20089;-75
2023/07/01 05:16:37;;;;;;;2.25;1.80;;;;;;;18.71;70.00;100376.00;5081044;28;20076;-74
2023/07/01 05:19:02;;;;;;;2.47;1.70;;;;;;;18.74;69.82;100376.16;5059696;28;20135;-73
2023/07/01 05:21:29;;;;;;;4.10;1.98;;;;;;;18.75;69.41;100375.03;5062330;28;20385;-73
2023/07/01 05:23:54;;;;;;;2.95;2.00;;;;;;;18.65;70.14;100373.25;5072068;28;20043;-75
2023/07/01 05:26:20;;;;;;;3.10;1.98;;;;;;;18.68;69.85;100376.59;5071164;28;20539;-74
2023/07/01 05:28:45;;;;;;;3.03;2.00;;;;;;;18.67;70.09;100372.09;5083168;28;20428;-74
2023/07/01 05:31:10;;;;;;;4.05;1.95;;;;;;;18.63;70.41;100375.56;5073206;28;20024;-75
2023/07/01 05:33:36;;;;;;;2.80;1.80;;;;;;;18.73;70.03;100365.25;5070445;28;20067;-74
2023/07/01 05:36:01;;;;;;;2.28;1.92;;;;;;;18.67;70.05;100375.75;5053392;28;20025;-71
2023/07/01 05:38:27;;;;;;;3.85;2.00;;;;;;;18.69;70.04;100359.38;5063706;28;20085;-73
2023/07/01 05:40:52;;;;;;;2.45;2.10;;;;;;;18.74;70.18;100370.53;5077797;28;20097;-72
2023/07/01 05:43:17;;;;;;;4.05;1.83;;;;;;;18.70;70.20;100363.88;5066910;28;20032;-75
2023/07/01 05:45:43;;;;;;;3.05;2.10;;;;;;;18.71;70.22;100365.56;5054775;28;20044;-73
2023/07/01 05:48:08;;;;;;;2.60;1.70;;;;;;;18.73;70.43;100363.25;5058401;28;20026;-73
2023/07/01 05:50:34;;;;;;;2.97;2.10;;;;;;;18.73;70.72;100362.44;5058688;28;20036;-73
2023/07/01 05:52:59;;;;;;;3.05;1.98;;;;;;;18.70;70.58;100363.03;5055040;28;20465;-73
2023/07/01 05:55:24;;;;;;;2.33;1.85;;;;;;;18.67;70.74;100358.91;5053337;28;20032;-73
2023/07/01 05:57:50;;;;;;;2.17;2.05;;;;;;;18.66;70.92;100360.03;5062153;28;20052;-72
2023/07/01 06:00:16;;;;;;;2.30;1.95;;;;;;;18.67;70.83;100358.91;5073916;28;20021;-72
2023/07/01 06:02:42;;;;;;;2.95;2.03;;;;;;;18.65;70.72;100356.38;5073909;28;20400;-73
2023/07/01 06:05:08;;;;;;;3.33;2.20;;;;;;;18.64;71.36;100356.72;5080724;28;20020;-73
2023/07/01 06:07:34;;;;;;;3.15;2.05;;;;;;;18.70;71.21;100351.78;5060846;28;20036;-73
2023/07/01 06:09:59;;;;;;;2.72;1.70;;;;;;;18.73;71.13;100351.19;5073929;28;20033;-73
2023/07/01 06:12:25;;;;;;;5.28;2.60;;;;;;;18.71;71.27;100354.31;5072306;28;20042;-73
2023/07/01 06:14:50;;;;;;;2.13;1.77;;;;;;;18.72;71.13;100355.97;5073189;28;20045;-73
2023/07/01 06:17:16;;;;;;;2.65;1.60;;;;;;;18.67;71.49;100343.97;5072424;28;20039;-73
2023/07/01 06:19:41;;;;;;;2.08;1.90;;;;;;;18.66;71.42;100351.59;5084745;28;20036;-73
2023/07/01 06:22:06;;;;;;;3.30;1.83;;;;;;;18.67;71.71;100342.03;5093963;28;20034;-73
2023/07/01 06:24:32;;;;;;;2.08;1.88;;;;;;;18.60;72.23;100350.06;5068963;28;20029;-73
2023/07/01 06:26:57;;;;;;;1.88;1.70;;;;;;;18.60;72.84;100336.03;5066581;28;20104;-73
2023/07/01 06:29:22;;;;;;;3.15;1.70;;;;;;;18.55;72.82;100348.22;5073478;28;20468;-73
2023/07/01 06:31:48;;;;;;;2.63;1.65;;;;;;;18.53;73.19;100341.25;5072010;28;20480;-73
2023/07/01 06:34:17;;;;;;;2.42;2.15;;;;;;;18.44;73.37;100344.00;5068583;28;20111;-73
2023/07/01 06:36:43;;;;;;;1.63;1.52;;;;;;;18.53;73.16;100339.28;5071362;28;20021;-72
2023/07/01 06:39:09;;;;;;;3.00;1.67;;;;;;;18.49;73.23;100334.59;5091220;28;20020;-72
2023/07/01 06:41:34;;;;;;;2.30;2.10;;;;;;;18.42;73.39;100334.22;5093157;28;20034;-72
2023/07/01 06:43:59;;;;;;;3.42;1.83;;;;;;;18.45;73.41;100340.03;5093319;28;20036;-73
2023/07/01 06:46:28;;;;;;;2.72;1.77;;;;;;;18.26;74.13;100337.41;5092654;28;20028;-72
2023/07/01 06:48:54;;;;;;;1.90;1.75;;;;;;;18.28;74.00;100339.91;5092692;28;20028;-72
2023/07/01 06:51:19;;;;;;;2.50;1.90;;;;;;;18.34;74.12;100338.63;5062389;28;20108;-74
2023/07/01 06:53:45;;;;;;;2.15;1.60;;;;;;;18.43;73.66;100339.53;5052262;28;20049;-74
2023/07/01 06:56:10;;;;;;;4.03;2.15;;;;;;;18.57;72.29;100334.66;5052490;28;20053;-74
2023/07/01 06:58:36;;;;;;;1.67;1.58;;;;;;;18.58;72.21;100343.94;5071122;28;20527;-75
2023/07/01 07:01:02;;;;;;;3.03;1.75;;;;;;;18.65;72.09;100338.69;5069186;28;20029;-69
2023/07/01 07:03:27;;;;;;;2.17;1.65;;;;;;;18.64;71.83;100334.22;5062874;28;20027;-73
2023/07/01 07:05:54;;;;;;;2.05;1.50;;;;;;;18.64;72.03;100337.03;5073148;28;20468;-73
2023/07/01 07:08:20;;;;;;;2.30;1.60;;;;;;;18.67;72.25;100338.38;5070832;28;20506;-73
2023/07/01 07:10:45;;;;;;;2.40;1.50;;;;;;;18.68;72.38;100340.03;5084926;28;20025;-74
2023/07/01 07:13:10;;;;;;;2.47;2.03;;;;;;;18.63;72.66;100330.59;5062001;28;20043;-74
2023/07/01 07:15:36;;;;;;;1.83;1.70;;;;;;;18.65;72.69;100335.88;5069743;28;20047;-74
2023/07/01 07:18:02;;;;;;;2.13;1.67;;;;;;;18.64;72.67;100332.25;5071407;28;20417;-73
2023/07/01 07:20:27;;;;;;;2.08;1.80;;;;;;;18.67;72.80;100327.13;5077748;28;20114;-73
2023/07/01 07:22:53;;;;;;;1.52;1.40;;;;;;;18.68;72.63;100331.63;5079257;28;20028;-74
2023/07/01 07:25:18;;;;;;;2.10;1.90;;;;;;;18.65;72.91;100335.88;5084698;28;20028;-74
2023/07/01 07:27:44;;;;;;;3.58;2.00;;;;;;;18.64;72.80;100323.00;5069928;28;20063;-74
2023/07/01 07:30:14;;;;;;;2.15;1.90;;;;;;;18.64;73.05;100331.41;5062309;28;20746;-73
2023/07/01 07:32:40;;;;;;;3.15;1.98;;;;;;;18.71;72.68;100323.41;5065382;28;20031;-74
2023/07/01 07:35:05;;;;;;;2.45;1.95;;;;;;;18.62;73.19;100330.91;5079076;28;20028;-73
2023/07/01 07:37:31;;;;;;;1.95;1.80;;;;;;;18.67;73.01;100324.31;5071737;28;20111;-74
2023/07/01 07:39:59;;;;;;;2.03;1.83;;;;;;;18.67;73.21;100327.97;5089527;28;20040;-74
2023/07/01 07:42:24;;;;;;;2.00;1.80;;;;;;;18.68;72.30;100324.00;5090855;28;20461;-74
2023/07/01 07:44:50;;;;;;;3.35;2.10;;;;;;;18.66;73.39;100320.66;5072076;28;20055;-74
2023/07/01 07:47:15;;;;;;;2.00;1.80;;;;;;;18.74;73.10;100327.53;5072769;28;20371;-74
2023/07/01 07:49:40;;;;;;;2.05;1.90;;;;;;;18.70;73.30;100306.81;5091266;28;20031;-74
2023/07/01 07:52:06;;;;;;;2.28;2.00;;;;;;;18.71;73.65;100322.56;5091821;28;20032;-74
2023/07/01 07:54:32;;;;;;;2.00;1.80;;;;;;;18.76;73.32;100317.63;5091978;28;20409;-74
2023/07/01 07:56:59;;;;;;;2.58;2.00;;;;;;;18.78;72.83;100311.69;5088170;28;20200;-73
2023/07/01 07:59:27;;;;;;;1.98;1.77;;;;;;;18.73;73.57;100315.47;5091881;28;20442;-73
2023/07/01 08:01:57;;;;;;;2.08;1.88;;;;;;;18.71;73.50;100314.16;5086473;28;20045;-74
2023/07/01 08:04:24;;;;;;;2.38;2.03;;;;;;;18.73;73.90;100307.03;5070487;28;20028;-74
2023/07/01 08:06:49;;;;;;;2.63;1.70;;;;;;;18.75;73.79;100309.53;5071244;28;20495;-73
2023/07/01 08:09:14;;;;;;;2.60;2.03;;;;;;;18.72;74.55;100305.38;5061193;28;20021;-74
2023/07/01 08:11:41;;;;;;;2.03;1.83;;;;;;;18.77;74.87;100304.41;5050370;28;20109;-73
2023/07/01 08:14:06;;;;;;;1.85;1.67;;;;;;;18.73;74.71;100307.03;5051286;28;20404;-73
2023/07/01 08:16:32;;;;;;;2.10;1.73;;;;;;;18.78;74.13;100301.25;5066809;28;20115;-73
2023/07/01 08:18:58;;;;;;;2.58;1.92;;;;;;;18.82;74.90;100307.94;5091227;28;20031;-74
2023/07/01 08:21:23;;;;;;;2.03;1.83;;;;;;;18.78;74.91;100295.63;5089159;28;20028;-73
2023/07/01 08:23:49;;;;;;;2.28;1.35;;;;;;;18.83;74.86;100301.16;5090953;28;20115;-73
2023/07/01 08:26:14;;;;;;;2.33;1.48;;;;;;;18.83;75.04;100303.97;5090060;28;20039;-73
2023/07/01 08:28:39;;;;;;;1.75;1.63;;;;;;;18.83;75.71;100318.03;5063567;28;20036;-73
2023/07/01 08:31:05;;;;;;;1.40;1.30;;;;;;;18.85;75.82;100310.06;5071335;28;20025;-73
2023/07/01 08:33:31;;;;;;;1.58;1.40;;;;;;;18.82;76.18;100305.13;5070056;28;20031;-73
2023/07/01 08:35:59;;;;;;;2.38;1.42;;;;;;;18.77;77.21;100301.59;5070400;28;20127;-74
2023/07/01 08:38:25;;;;;;;1.40;1.30;;;;;;;18.83;76.60;100303.13;5090458;28;20077;-73
2023/07/01 08:40:55;;;;;;;2.80;1.38;;;;;;;18.81;77.09;100302.63;5090445;28;20028;-73
2023/07/01 08:43:25;;;;;;;1.38;1.27;;;;;;;18.85;77.03;100301.63;5091366;28;20024;-73
2023/07/01 08:45:51;;;;;;;2.95;1.17;;;;;;;18.86;77.09;100306.13;5065143;28;20032;-73
2023/07/01 08:48:23;;;;;;;1.00;1.00;;;;;;;18.90;76.49;100300.66;5071365;28;20020;-73
2023/07/01 08:51:14;;;;;;;1.20;1.00;;;;;;;18.95;77.10;100296.91;5070232;28;20063;-73
2023/07/01 08:53:42;;;;;;;2.10;1.10;;;;;;;19.02;76.51;100294.44;5063206;28;20131;-73
2023/07/01 08:56:07;;;;;;;1.25;1.00;;;;;;;19.03;76.52;100296.13;5091511;28;20024;-73
2023/07/01 08:58:33;;;;;;;1.77;1.00;;;;;;;19.06;75.30;100301.06;5090851;28;20069;-73
2023/07/01 09:00:58;;;;;;;1.00;1.00;;;;;;;19.01;76.40;100302.06;5090502;28;20463;-73
2023/07/01 09:03:26;;;;;;;1.00;1.00;;;;;;;18.96;77.08;100293.75;5069941;28;20068;-73
2023/07/01 09:05:54;;;;;;;3.80;1.00;;;;;;;18.98;77.22;100291.47;5071388;28;20127;-73
2023/07/01 09:08:19;;;;;;;2.28;1.00;;;;;;;19.02;76.92;100300.06;5070075;28;20028;-73
2023/07/01 09:10:44;;;;;;;0.90;0.85;;;;;;;19.02;76.90;100297.25;5071550;28;20420;-73
2023/07/01 09:13:11;;;;;;;1.10;0.73;;;;;;;19.01;78.16;100299.25;5070950;28;20029;-73
2023/07/01 09:15:43;;;;;;;0.80;0.80;;;;;;;19.02;77.98;100303.75;5067521;28;20048;-73
2023/07/01 09:18:18;;;;;;;1.63;0.80;;;;;;;19.09;78.06;100298.44;5067636;28;20098;-73
2023/07/01 09:20:44;;;;;;;1.55;0.90;;;;;;;19.10;78.16;100297.31;5049858;28;20041;-74
2023/07/01 09:23:09;;;;;;;1.70;0.68;;;;;;;19.15;77.62;100296.34;5050534;28;20266;-76
2023/07/01 09:25:34;;;;;;;0.90;0.90;;;;;;;19.17;78.06;100299.66;5050966;28;20025;-74
2023/07/01 09:28:00;;;;;;;0.80;0.80;;;;;;;19.20;78.23;100292.56;5050194;28;20495;-72
2023/07/01 09:30:27;;;;;;;0.90;0.90;;;;;;;19.23;78.88;100289.94;5056059;28;20037;-72
2023/07/01 09:33:11;;;;;;;1.20;0.90;;;;;;;19.26;78.58;100282.81;5076711;28;20476;-73
2023/07/01 09:35:45;;;;;;;1.35;1.10;;;;;;;19.29;78.54;100285.78;5068585;28;20484;-73
2023/07/01 09:38:11;;;;;;;2.42;0.95;;;;;;;19.26;78.92;100286.47;5051836;28;20036;-73
2023/07/01 09:40:36;;;;;;;2.10;1.00;;;;;;;19.29;78.56;100285.78;5065635;28;20119;-73
2023/07/01 09:43:02;;;;;;;1.35;0.80;;;;;;;19.31;78.60;100277.03;5069984;28;20365;-73
2023/07/01 09:45:27;;;;;;;1.10;1.00;;;;;;;19.32;77.77;100271.06;5070171;28;20376;-73
2023/07/01 09:47:52;;;;;;;1.02;0.93;;;;;;;19.31;78.95;100269.44;5057076;28;20082;-73
2023/07/01 09:50:22;;;;;;;1.15;1.00;;;;;;;19.28;79.06;100270.06;5065976;28;20080;-73
2023/07/01 09:52:50;;;;;;;0.82;0.82;;;;;;;19.32;78.36;100278.69;5061161;28;20503;-74
2023/07/01 09:55:16;;;;;;;1.30;1.20;;;;;;;19.33;78.85;100278.34;5055040;28;20021;-73
2023/07/01 09:57:41;;;;;;;2.85;1.30;;;;;;;19.33;79.08;100269.91;5072373;28;20029;-73
2023/07/01 10:00:10;;;;;;;1.20;1.10;;;;;;;19.32;78.87;100282.34;5070639;28;20082;-73
2023/07/01 10:02:35;;;;;;;2.15;1.00;;;;;;;19.31;78.48;100271.41;5070917;28;20062;-73
2023/07/01 10:05:01;;;;;;;1.50;1.40;;;;;;;19.30;79.00;100273.41;5080942;28;20035;-73
2023/07/01 10:07:27;;;;;;;1.83;1.27;;;;;;;19.35;79.38;100278.03;5057008;28;20508;-73
2023/07/01 10:09:52;;;;;;;1.35;1.25;;;;;;;19.33;79.44;100274.72;5052240;28;20037;-74
2023/07/01 10:12:19;;;;;;;1.80;1.42;;;;;;;19.35;79.18;100272.41;5073658;28;20021;-74
2023/07/01 10:14:51;;;;;;;1.20;1.13;;;;;;;19.27;80.14;100273.22;5074802;28;20098;-72
2023/07/01 10:17:17;;;;;;;1.30;1.10;;;;;;;19.35;79.44;100273.25;5072336;28;20444;-74
2023/07/01 10:19:46;;;;;;;1.30;1.20;;;;;;;19.36;79.54;100266.44;5067589;28;20033;-76
2023/07/01 10:22:29;;;;;;;2.17;1.20;;;;;;;19.44;79.04;100272.44;5052383;28;20029;-75
2023/07/01 10:24:58;;;;;;;1.40;1.30;;;;;;;19.42;79.75;100269.13;5079835;28;20028;-76
2023/07/01 10:27:42;;;;;;;1.38;1.20;;;;;;;19.47;79.22;100263.34;5080787;28;20085;-76
2023/07/01 10:30:09;;;;;;;1.40;1.30;;;;;;;19.44;80.14;100264.81;5073372;28;20495;-73
2023/07/01 10:32:34;;;;;;;1.90;1.40;;;;;;;19.48;79.79;100265.00;5071109;28;20025;-73
2023/07/01 10:35:00;;;;;;;1.73;1.50;;;;;;;19.51;79.58;100258.72;5057907;28;20029;-73
2023/07/01 10:37:26;;;;;;;1.50;1.40;;;;;;;19.46;79.98;100262.53;5052952;28;20479;-74
2023/07/01 10:39:53;;;;;;;2.28;1.60;;;;;;;19.50;79.93;100266.34;5065145;28;20093;-72
2023/07/01 10:42:33;;;;;;;2.08;1.90;;;;;;;19.53;80.02;100264.84;5061927;28;20044;-74
2023/07/01 10:45:10;;;;;;;2.00;1.90;;;;;;;19.61;79.65;100266.88;5066096;28;20123;-75
2023/07/01 10:47:36;;;;;;;2.92;2.40;;;;;;;19.63;80.02;100263.75;5070894;28;20029;-76
2023/07/01 10:50:07;;;;;;;3.63;2.58;;;;;;;19.59;80.86;100257.91;5048948;28;20032;-74
2023/07/01 10:52:53;;;;;;;4.30;2.63;;;;;;;19.63;80.28;100258.13;5061900;28;20484;-76
2023/07/01 10:55:34;;;;;;;2.60;2.40;;;;;;;19.70;79.25;100266.91;5062862;28;20110;-75
2023/07/01 10:58:16;;;;;;;2.78;2.58;;;;;;;19.72;78.72;100261.75;5073845;28;20448;-75
2023/07/01 11:00:42;;;;;;;3.25;2.95;;;;;;;19.71;78.88;100262.94;5071242;28;20131;-74
2023/07/01 11:03:33;;;;;;;3.22;2.60;;;;;;;19.77;78.17;100265.28;5078396;28;20437;-73
2023/07/01 11:06:03;;;;;;;3.20;2.90;;;;;;;19.81;78.69;100260.63;5068283;28;20036;-73
2023/07/01 11:08:31;;;;;;;3.20;2.90;;;;;;;19.84;78.81;100264.75;5056804;28;20087;-70
2023/07/01 11:10:57;;;;;;;3.50;3.20;;;;;;;19.89;78.22;100256.16;5061873;28;20094;-73
2023/07/01 11:13:23;;;;;;;3.50;3.20;;;;;;;19.89;78.98;100256.16;5056505;28;20579;-70
2023/07/01 11:16:08;;;;;;;3.67;3.38;;;;;;;19.98;78.39;100250.53;5069567;28;20066;-73
2023/07/01 11:18:43;;;;;;;3.65;3.35;;;;;;;20.00;79.16;100253.84;5067313;28;20601;-70
2023/07/01 11:21:11;;;;;;;3.72;3.10;;;;;;;20.03;77.36;100242.72;5066299;28;20392;-72
2023/07/01 11:23:40;;;;;;;3.60;3.30;;;;;;;20.07;77.81;100254.16;5054051;28;20024;-74